sensor_id;sensor_type;location;lat;lon;timestamp;P1;durP1;ratioP1;P2;durP2;ratioP2
32198;SDS011;19221;42.656;21.156;2022-07-29T00:00:29;13.02;;;6.78;;
32198;SDS011;19221;42.656;21.156;2022-07-29T00:02:55;9.25;;;6.63;;
32198;SDS011;19221;42.656;21.156;2022-07-29T00:05:20;9.00;;;6.80;;
32198;SDS011;19221;42.656;21.156;2022-07-29T00:07:46;8.77;;;6.57;;
32198;SDS011;19221;42.656;21.156;2022-07-29T00:10:12;7.32;;;5.93;;
32198;SDS011;19221;42.656;21.156;2022-07-29T00:12:37;11.05;;;6.57;;
32198;SDS011;19221;42.656;21.156;2022-07-29T00:15:04;11.02;;;7.05;;
32198;SDS011;19221;42.656;21.156;2022-07-29T00:17:30;9.70;;;6.82;;
32198;SDS011;19221;42.656;21.156;2022-07-29T00:19:56;8.40;;;6.60;;
32198;SDS011;19221;42.656;21.156;2022-07-29T00:22:22;7.53;;;6.60;;
32198;SDS011;19221;42.656;21.156;2022-07-29T00:24:48;9.68;;;6.30;;
32198;SDS011;19221;42.656;21.156;2022-07-29T00:27:14;7.07;;;6.13;;
32198;SDS011;19221;42.656;21.156;2022-07-29T00:29:39;7.75;;;6.07;;
32198;SDS011;19221;42.656;21.156;2022-07-29T00:32:05;7.38;;;6.00;;
32198;SDS011;19221;42.656;21.156;2022-07-29T00:34:31;9.55;;;6.20;;
32198;SDS011;19221;42.656;21.156;2022-07-29T00:37:15;9.80;;;5.63;;
32198;SDS011;19221;42.656;21.156;2022-07-29T00:39:41;7.03;;;6.22;;
32198;SDS011;19221;42.656;21.156;2022-07-29T00:42:25;11.40;;;6.50;;
32198;SDS011;19221;42.656;21.156;2022-07-29T00:44:51;8.43;;;6.90;;
32198;SDS011;19221;42.656;21.156;2022-07-29T00:47:17;23.65;;;7.65;;
32198;SDS011;19221;42.656;21.156;2022-07-29T00:49:42;9.60;;;6.85;;
32198;SDS011;19221;42.656;21.156;2022-07-29T00:52:09;10.60;;;7.60;;
32198;SDS011;19221;42.656;21.156;2022-07-29T00:54:35;12.48;;;7.47;;
32198;SDS011;19221;42.656;21.156;2022-07-29T00:57:03;8.30;;;7.25;;
32198;SDS011;19221;42.656;21.156;2022-07-29T00:59:28;9.90;;;6.47;;
32198;SDS011;19221;42.656;21.156;2022-07-29T01:01:54;10.85;;;6.35;;
32198;SDS011;19221;42.656;21.156;2022-07-29T01:04:22;9.13;;;7.13;;
32198;SDS011;19221;42.656;21.156;2022-07-29T01:06:48;8.23;;;6.03;;
32198;SDS011;19221;42.656;21.156;2022-07-29T01:09:14;7.25;;;6.50;;
32198;SDS011;19221;42.656;21.156;2022-07-29T01:12:00;8.73;;;6.38;;
32198;SDS011;19221;42.656;21.156;2022-07-29T01:14:26;10.23;;;6.65;;
32198;SDS011;19221;42.656;21.156;2022-07-29T01:17:00;10.05;;;6.63;;
32198;SDS011;19221;42.656;21.156;2022-07-29T01:19:33;7.82;;;6.50;;
32198;SDS011;19221;42.656;21.156;2022-07-29T01:22:08;11.52;;;6.88;;
32198;SDS011;19221;42.656;21.156;2022-07-29T01:29:41;8.57;;;6.45;;
32198;SDS011;19221;42.656;21.156;2022-07-29T01:32:13;9.30;;;7.10;;
32198;SDS011;19221;42.656;21.156;2022-07-29T01:39:35;8.95;;;6.45;;
32198;SDS011;19221;42.656;21.156;2022-07-29T01:47:12;8.55;;;6.40;;
32198;SDS011;19221;42.656;21.156;2022-07-29T01:49:41;9.15;;;6.65;;
32198;SDS011;19221;42.656;21.156;2022-07-29T01:52:09;8.98;;;6.43;;
32198;SDS011;19221;42.656;21.156;2022-07-29T01:54:40;11.27;;;6.97;;
32198;SDS011;19221;42.656;21.156;2022-07-29T01:57:11;8.88;;;6.35;;
32198;SDS011;19221;42.656;21.156;2022-07-29T01:59:38;7.53;;;6.78;;
32198;SDS011;19221;42.656;21.156;2022-07-29T02:02:06;9.70;;;7.38;;
32198;SDS011;19221;42.656;21.156;2022-07-29T02:04:33;10.60;;;7.43;;
32198;SDS011;19221;42.656;21.156;2022-07-29T02:07:02;9.18;;;7.22;;
32198;SDS011;19221;42.656;21.156;2022-07-29T02:09:29;8.40;;;7.10;;
32198;SDS011;19221;42.656;21.156;2022-07-29T02:11:55;11.43;;;7.32;;
32198;SDS011;19221;42.656;21.156;2022-07-29T02:14:22;10.57;;;7.38;;
32198;SDS011;19221;42.656;21.156;2022-07-29T02:16:50;15.10;;;8.07;;
32198;SDS011;19221;42.656;21.156;2022-07-29T02:19:17;12.20;;;7.93;;
32198;SDS011;19221;42.656;21.156;2022-07-29T02:21:44;9.10;;;8.05;;
32198;SDS011;19221;42.656;21.156;2022-07-29T02:24:10;10.02;;;7.25;;
32198;SDS011;19221;42.656;21.156;2022-07-29T02:26:36;8.88;;;7.70;;
32198;SDS011;19221;42.656;21.156;2022-07-29T02:29:03;12.15;;;7.55;;
32198;SDS011;19221;42.656;21.156;2022-07-29T02:31:32;8.73;;;7.32;;
32198;SDS011;19221;42.656;21.156;2022-07-29T02:33:59;14.73;;;7.70;;
32198;SDS011;19221;42.656;21.156;2022-07-29T02:36:26;11.55;;;8.00;;
32198;SDS011;19221;42.656;21.156;2022-07-29T02:38:53;11.27;;;7.78;;
32198;SDS011;19221;42.656;21.156;2022-07-29T02:41:44;10.10;;;7.95;;
32198;SDS011;19221;42.656;21.156;2022-07-29T02:44:12;8.38;;;7.15;;
32198;SDS011;19221;42.656;21.156;2022-07-29T02:46:45;8.25;;;7.45;;
32198;SDS011;19221;42.656;21.156;2022-07-29T02:51:58;10.63;;;8.00;;
32198;SDS011;19221;42.656;21.156;2022-07-29T02:56:57;8.80;;;7.53;;
32198;SDS011;19221;42.656;21.156;2022-07-29T02:59:24;11.00;;;8.48;;
32198;SDS011;19221;42.656;21.156;2022-07-29T03:01:52;9.68;;;7.68;;
32198;SDS011;19221;42.656;21.156;2022-07-29T03:04:19;11.52;;;8.13;;
32198;SDS011;19221;42.656;21.156;2022-07-29T03:06:46;10.50;;;8.57;;
32198;SDS011;19221;42.656;21.156;2022-07-29T03:09:12;12.15;;;8.38;;
32198;SDS011;19221;42.656;21.156;2022-07-29T03:14:43;11.70;;;10.32;;
32198;SDS011;19221;42.656;21.156;2022-07-29T03:17:09;10.88;;;9.73;;
32198;SDS011;19221;42.656;21.156;2022-07-29T03:19:35;13.13;;;10.02;;
32198;SDS011;19221;42.656;21.156;2022-07-29T03:22:01;14.38;;;10.27;;
32198;SDS011;19221;42.656;21.156;2022-07-29T03:24:31;10.15;;;9.00;;
32198;SDS011;19221;42.656;21.156;2022-07-29T03:26:57;12.57;;;9.02;;
32198;SDS011;19221;42.656;21.156;2022-07-29T03:29:23;13.30;;;8.82;;
32198;SDS011;19221;42.656;21.156;2022-07-29T03:31:49;11.43;;;8.98;;
32198;SDS011;19221;42.656;21.156;2022-07-29T03:34:14;8.85;;;7.95;;
32198;SDS011;19221;42.656;21.156;2022-07-29T03:36:40;11.30;;;8.50;;
32198;SDS011;19221;42.656;21.156;2022-07-29T03:39:06;12.32;;;7.97;;
32198;SDS011;19221;42.656;21.156;2022-07-29T03:41:33;9.23;;;7.88;;
32198;SDS011;19221;42.656;21.156;2022-07-29T03:44:00;11.32;;;8.20;;
32198;SDS011;19221;42.656;21.156;2022-07-29T03:46:26;12.00;;;8.13;;
32198;SDS011;19221;42.656;21.156;2022-07-29T03:48:55;9.20;;;7.68;;
32198;SDS011;19221;42.656;21.156;2022-07-29T03:51:24;14.57;;;8.15;;
32198;SDS011;19221;42.656;21.156;2022-07-29T03:53:50;10.55;;;7.07;;
32198;SDS011;19221;42.656;21.156;2022-07-29T03:56:16;10.55;;;7.75;;
32198;SDS011;19221;42.656;21.156;2022-07-29T03:58:42;8.38;;;7.30;;
32198;SDS011;19221;42.656;21.156;2022-07-29T04:01:09;8.23;;;7.25;;
32198;SDS011;19221;42.656;21.156;2022-07-29T04:03:35;9.40;;;8.00;;
32198;SDS011;19221;42.656;21.156;2022-07-29T04:06:02;10.60;;;7.85;;
32198;SDS011;19221;42.656;21.156;2022-07-29T04:08:28;12.25;;;8.63;;
32198;SDS011;19221;42.656;21.156;2022-07-29T04:10:54;8.70;;;7.68;;
32198;SDS011;19221;42.656;21.156;2022-07-29T04:13:20;13.68;;;7.75;;
32198;SDS011;19221;42.656;21.156;2022-07-29T04:15:46;10.88;;;7.68;;
32198;SDS011;19221;42.656;21.156;2022-07-29T04:18:11;8.32;;;7.13;;
32198;SDS011;19221;42.656;21.156;2022-07-29T04:20:37;8.80;;;7.75;;
32198;SDS011;19221;42.656;21.156;2022-07-29T04:23:03;8.32;;;7.13;;
32198;SDS011;19221;42.656;21.156;2022-07-29T04:25:28;8.90;;;7.22;;
32198;SDS011;19221;42.656;21.156;2022-07-29T04:27:54;8.80;;;7.13;;
32198;SDS011;19221;42.656;21.156;2022-07-29T04:30:25;11.07;;;7.20;;
32198;SDS011;19221;42.656;21.156;2022-07-29T04:32:51;8.20;;;6.82;;
32198;SDS011;19221;42.656;21.156;2022-07-29T04:35:18;9.73;;;7.35;;
32198;SDS011;19221;42.656;21.156;2022-07-29T04:37:44;10.75;;;7.72;;
32198;SDS011;19221;42.656;21.156;2022-07-29T04:40:09;12.02;;;7.70;;
32198;SDS011;19221;42.656;21.156;2022-07-29T04:42:35;10.82;;;7.78;;
32198;SDS011;19221;42.656;21.156;2022-07-29T04:45:01;10.93;;;8.68;;
32198;SDS011;19221;42.656;21.156;2022-07-29T04:47:26;10.80;;;7.65;;
32198;SDS011;19221;42.656;21.156;2022-07-29T04:49:52;11.40;;;8.00;;
32198;SDS011;19221;42.656;21.156;2022-07-29T04:52:18;8.95;;;7.55;;
32198;SDS011;19221;42.656;21.156;2022-07-29T04:54:43;9.52;;;7.35;;
32198;SDS011;19221;42.656;21.156;2022-07-29T04:57:09;10.82;;;8.05;;
32198;SDS011;19221;42.656;21.156;2022-07-29T04:59:35;12.13;;;8.27;;
32198;SDS011;19221;42.656;21.156;2022-07-29T05:02:01;11.88;;;7.97;;
32198;SDS011;19221;42.656;21.156;2022-07-29T05:04:26;13.13;;;7.95;;
32198;SDS011;19221;42.656;21.156;2022-07-29T05:06:52;13.80;;;8.73;;
32198;SDS011;19221;42.656;21.156;2022-07-29T05:09:18;10.95;;;9.13;;
32198;SDS011;19221;42.656;21.156;2022-07-29T05:11:59;11.38;;;8.63;;
32198;SDS011;19221;42.656;21.156;2022-07-29T05:14:25;11.57;;;8.18;;
32198;SDS011;19221;42.656;21.156;2022-07-29T05:16:50;14.50;;;9.10;;
32198;SDS011;19221;42.656;21.156;2022-07-29T05:19:16;10.48;;;8.52;;
32198;SDS011;19221;42.656;21.156;2022-07-29T05:21:44;14.50;;;10.00;;
32198;SDS011;19221;42.656;21.156;2022-07-29T05:24:10;12.30;;;8.77;;
32198;SDS011;19221;42.656;21.156;2022-07-29T05:26:35;12.25;;;8.65;;
32198;SDS011;19221;42.656;21.156;2022-07-29T05:29:01;13.43;;;8.48;;
32198;SDS011;19221;42.656;21.156;2022-07-29T05:31:27;11.77;;;10.25;;
32198;SDS011;19221;42.656;21.156;2022-07-29T05:33:52;15.27;;;8.77;;
32198;SDS011;19221;42.656;21.156;2022-07-29T05:36:18;10.20;;;8.52;;
32198;SDS011;19221;42.656;21.156;2022-07-29T05:38:44;12.13;;;8.75;;
32198;SDS011;19221;42.656;21.156;2022-07-29T05:47:16;12.30;;;8.48;;
32198;SDS011;19221;42.656;21.156;2022-07-29T05:49:42;11.18;;;9.32;;
32198;SDS011;19221;42.656;21.156;2022-07-29T05:52:08;11.93;;;9.50;;
32198;SDS011;19221;42.656;21.156;2022-07-29T05:54:35;12.95;;;8.82;;
32198;SDS011;19221;42.656;21.156;2022-07-29T05:57:02;14.30;;;9.20;;
32198;SDS011;19221;42.656;21.156;2022-07-29T05:59:28;17.75;;;10.25;;
32198;SDS011;19221;42.656;21.156;2022-07-29T06:01:54;16.20;;;10.00;;
32198;SDS011;19221;42.656;21.156;2022-07-29T06:04:20;21.00;;;10.32;;
32198;SDS011;19221;42.656;21.156;2022-07-29T06:06:46;13.77;;;9.55;;
32198;SDS011;19221;42.656;21.156;2022-07-29T06:09:11;11.00;;;8.93;;
32198;SDS011;19221;42.656;21.156;2022-07-29T06:11:37;13.32;;;9.73;;
32198;SDS011;19221;42.656;21.156;2022-07-29T06:14:03;13.02;;;8.70;;
32198;SDS011;19221;42.656;21.156;2022-07-29T06:16:29;15.55;;;8.98;;
32198;SDS011;19221;42.656;21.156;2022-07-29T06:18:54;13.15;;;8.63;;
32198;SDS011;19221;42.656;21.156;2022-07-29T06:21:20;15.13;;;9.52;;
32198;SDS011;19221;42.656;21.156;2022-07-29T06:23:46;13.93;;;8.32;;
32198;SDS011;19221;42.656;21.156;2022-07-29T06:26:11;14.35;;;8.30;;
32198;SDS011;19221;42.656;21.156;2022-07-29T06:28:37;13.30;;;8.52;;
32198;SDS011;19221;42.656;21.156;2022-07-29T06:31:03;24.67;;;8.93;;
32198;SDS011;19221;42.656;21.156;2022-07-29T06:33:30;13.35;;;8.65;;
32198;SDS011;19221;42.656;21.156;2022-07-29T06:35:56;13.48;;;8.23;;
32198;SDS011;19221;42.656;21.156;2022-07-29T06:38:22;13.00;;;8.15;;
32198;SDS011;19221;42.656;21.156;2022-07-29T06:40:48;16.77;;;8.50;;
32198;SDS011;19221;42.656;21.156;2022-07-29T06:43:35;10.90;;;8.05;;
32198;SDS011;19221;42.656;21.156;2022-07-29T06:46:03;14.25;;;8.30;;
32198;SDS011;19221;42.656;21.156;2022-07-29T06:48:30;15.38;;;9.32;;
32198;SDS011;19221;42.656;21.156;2022-07-29T06:50:55;16.10;;;8.32;;
32198;SDS011;19221;42.656;21.156;2022-07-29T06:53:21;17.27;;;9.85;;
32198;SDS011;19221;42.656;21.156;2022-07-29T06:55:47;16.60;;;9.55;;
32198;SDS011;19221;42.656;21.156;2022-07-29T06:58:13;17.38;;;10.27;;
32198;SDS011;19221;42.656;21.156;2022-07-29T07:00:41;13.60;;;9.48;;
32198;SDS011;19221;42.656;21.156;2022-07-29T07:03:07;13.15;;;8.73;;
32198;SDS011;19221;42.656;21.156;2022-07-29T07:05:33;16.95;;;9.75;;
32198;SDS011;19221;42.656;21.156;2022-07-29T07:07:59;15.05;;;9.38;;
32198;SDS011;19221;42.656;21.156;2022-07-29T07:10:25;13.45;;;9.52;;
32198;SDS011;19221;42.656;21.156;2022-07-29T07:12:51;16.45;;;9.75;;
32198;SDS011;19221;42.656;21.156;2022-07-29T07:15:17;13.77;;;8.57;;
32198;SDS011;19221;42.656;21.156;2022-07-29T07:17:47;14.27;;;9.75;;
32198;SDS011;19221;42.656;21.156;2022-07-29T07:20:14;12.20;;;9.50;;
32198;SDS011;19221;42.656;21.156;2022-07-29T07:22:40;14.25;;;8.88;;
32198;SDS011;19221;42.656;21.156;2022-07-29T07:25:06;12.20;;;8.38;;
32198;SDS011;19221;42.656;21.156;2022-07-29T07:27:32;14.52;;;9.77;;
32198;SDS011;19221;42.656;21.156;2022-07-29T07:29:58;12.65;;;8.80;;
32198;SDS011;19221;42.656;21.156;2022-07-29T07:32:23;11.45;;;8.70;;
32198;SDS011;19221;42.656;21.156;2022-07-29T07:34:49;16.77;;;8.77;;
32198;SDS011;19221;42.656;21.156;2022-07-29T07:37:15;18.00;;;10.10;;
32198;SDS011;19221;42.656;21.156;2022-07-29T07:39:41;15.02;;;9.70;;
32198;SDS011;19221;42.656;21.156;2022-07-29T07:42:07;15.45;;;9.55;;
32198;SDS011;19221;42.656;21.156;2022-07-29T07:44:32;13.93;;;9.60;;
32198;SDS011;19221;42.656;21.156;2022-07-29T07:46:58;13.98;;;10.00;;
32198;SDS011;19221;42.656;21.156;2022-07-29T07:49:24;13.15;;;9.00;;
32198;SDS011;19221;42.656;21.156;2022-07-29T07:51:49;12.07;;;8.57;;
32198;SDS011;19221;42.656;21.156;2022-07-29T07:54:15;15.57;;;8.77;;
32198;SDS011;19221;42.656;21.156;2022-07-29T07:56:41;15.55;;;9.13;;
32198;SDS011;19221;42.656;21.156;2022-07-29T07:59:07;15.15;;;9.00;;
32198;SDS011;19221;42.656;21.156;2022-07-29T08:01:33;17.55;;;8.32;;
32198;SDS011;19221;42.656;21.156;2022-07-29T08:03:59;17.40;;;10.52;;
32198;SDS011;19221;42.656;21.156;2022-07-29T08:06:24;10.98;;;8.38;;
32198;SDS011;19221;42.656;21.156;2022-07-29T08:08:50;17.20;;;10.55;;
32198;SDS011;19221;42.656;21.156;2022-07-29T08:11:16;14.40;;;9.68;;
32198;SDS011;19221;42.656;21.156;2022-07-29T08:13:42;12.85;;;8.63;;
32198;SDS011;19221;42.656;21.156;2022-07-29T08:16:08;19.60;;;10.10;;
32198;SDS011;19221;42.656;21.156;2022-07-29T08:18:37;17.52;;;9.75;;
32198;SDS011;19221;42.656;21.156;2022-07-29T08:21:04;16.85;;;9.02;;
32198;SDS011;19221;42.656;21.156;2022-07-29T08:23:30;17.05;;;8.35;;
32198;SDS011;19221;42.656;21.156;2022-07-29T08:26:10;12.10;;;9.60;;
32198;SDS011;19221;42.656;21.156;2022-07-29T08:28:37;13.15;;;9.73;;
32198;SDS011;19221;42.656;21.156;2022-07-29T08:31:03;16.58;;;8.77;;
32198;SDS011;19221;42.656;21.156;2022-07-29T08:33:28;13.35;;;9.45;;
32198;SDS011;19221;42.656;21.156;2022-07-29T08:35:54;15.55;;;9.27;;
32198;SDS011;19221;42.656;21.156;2022-07-29T08:38:20;15.45;;;9.88;;
32198;SDS011;19221;42.656;21.156;2022-07-29T08:40:46;12.98;;;9.18;;
32198;SDS011;19221;42.656;21.156;2022-07-29T08:43:12;13.35;;;9.57;;
32198;SDS011;19221;42.656;21.156;2022-07-29T08:48:07;16.52;;;9.63;;
32198;SDS011;19221;42.656;21.156;2022-07-29T08:50:34;13.75;;;10.02;;
32198;SDS011;19221;42.656;21.156;2022-07-29T08:53:00;16.95;;;9.68;;
32198;SDS011;19221;42.656;21.156;2022-07-29T08:55:26;15.25;;;9.77;;
32198;SDS011;19221;42.656;21.156;2022-07-29T08:57:53;16.70;;;9.95;;
32198;SDS011;19221;42.656;21.156;2022-07-29T09:00:19;16.85;;;9.68;;
32198;SDS011;19221;42.656;21.156;2022-07-29T09:02:46;14.40;;;9.50;;
32198;SDS011;19221;42.656;21.156;2022-07-29T09:05:13;18.30;;;9.70;;
32198;SDS011;19221;42.656;21.156;2022-07-29T09:07:39;16.35;;;9.13;;
32198;SDS011;19221;42.656;21.156;2022-07-29T09:10:05;11.40;;;9.48;;
32198;SDS011;19221;42.656;21.156;2022-07-29T09:12:31;17.95;;;9.63;;
32198;SDS011;19221;42.656;21.156;2022-07-29T09:14:57;14.82;;;9.95;;
32198;SDS011;19221;42.656;21.156;2022-07-29T09:17:42;16.73;;;10.05;;
32198;SDS011;19221;42.656;21.156;2022-07-29T09:20:12;13.30;;;9.10;;
32198;SDS011;19221;42.656;21.156;2022-07-29T09:22:39;15.68;;;9.20;;
32198;SDS011;19221;42.656;21.156;2022-07-29T09:25:04;15.23;;;10.23;;
32198;SDS011;19221;42.656;21.156;2022-07-29T09:27:30;14.68;;;9.45;;
32198;SDS011;19221;42.656;21.156;2022-07-29T09:29:57;16.48;;;9.50;;
32198;SDS011;19221;42.656;21.156;2022-07-29T09:32:23;20.20;;;10.70;;
32198;SDS011;19221;42.656;21.156;2022-07-29T09:34:49;16.42;;;9.93;;
32198;SDS011;19221;42.656;21.156;2022-07-29T09:37:27;14.07;;;9.55;;
32198;SDS011;19221;42.656;21.156;2022-07-29T09:39:53;14.10;;;8.80;;
32198;SDS011;19221;42.656;21.156;2022-07-29T09:42:28;11.40;;;8.85;;
32198;SDS011;19221;42.656;21.156;2022-07-29T09:44:54;15.60;;;9.38;;
32198;SDS011;19221;42.656;21.156;2022-07-29T09:47:20;13.48;;;10.13;;
32198;SDS011;19221;42.656;21.156;2022-07-29T09:49:58;15.75;;;9.60;;
32198;SDS011;19221;42.656;21.156;2022-07-29T09:52:27;13.77;;;10.43;;
32198;SDS011;19221;42.656;21.156;2022-07-29T09:55:04;15.85;;;11.23;;
32198;SDS011;19221;42.656;21.156;2022-07-29T09:57:30;12.45;;;9.68;;
32198;SDS011;19221;42.656;21.156;2022-07-29T09:59:59;11.95;;;9.60;;
32198;SDS011;19221;42.656;21.156;2022-07-29T10:02:29;15.50;;;10.52;;
32198;SDS011;19221;42.656;21.156;2022-07-29T10:04:56;12.00;;;9.20;;
32198;SDS011;19221;42.656;21.156;2022-07-29T10:07:21;13.55;;;9.70;;
32198;SDS011;19221;42.656;21.156;2022-07-29T10:09:56;16.02;;;10.20;;
32198;SDS011;19221;42.656;21.156;2022-07-29T10:12:23;12.40;;;9.93;;
32198;SDS011;19221;42.656;21.156;2022-07-29T10:14:50;12.68;;;9.25;;
32198;SDS011;19221;42.656;21.156;2022-07-29T10:17:16;13.55;;;9.07;;
32198;SDS011;19221;42.656;21.156;2022-07-29T10:19:42;16.60;;;11.38;;
32198;SDS011;19221;42.656;21.156;2022-07-29T10:22:09;15.00;;;9.40;;
32198;SDS011;19221;42.656;21.156;2022-07-29T10:24:36;12.77;;;9.23;;
32198;SDS011;19221;42.656;21.156;2022-07-29T10:27:06;15.52;;;10.68;;
32198;SDS011;19221;42.656;21.156;2022-07-29T10:29:32;14.55;;;9.30;;
32198;SDS011;19221;42.656;21.156;2022-07-29T10:32:14;17.95;;;9.70;;
32198;SDS011;19221;42.656;21.156;2022-07-29T10:40:11;15.52;;;11.98;;
32198;SDS011;19221;42.656;21.156;2022-07-29T10:42:58;13.55;;;9.73;;
32198;SDS011;19221;42.656;21.156;2022-07-29T10:45:29;16.60;;;11.10;;
32198;SDS011;19221;42.656;21.156;2022-07-29T10:48:04;12.50;;;9.60;;
32198;SDS011;19221;42.656;21.156;2022-07-29T10:53:16;13.35;;;8.60;;
32198;SDS011;19221;42.656;21.156;2022-07-29T10:55:41;14.40;;;9.52;;
32198;SDS011;19221;42.656;21.156;2022-07-29T10:58:13;11.88;;;8.88;;
32198;SDS011;19221;42.656;21.156;2022-07-29T11:00:39;10.95;;;8.52;;
32198;SDS011;19221;42.656;21.156;2022-07-29T11:03:05;12.75;;;8.43;;
32198;SDS011;19221;42.656;21.156;2022-07-29T11:05:42;11.20;;;7.82;;
32198;SDS011;19221;42.656;21.156;2022-07-29T11:08:17;11.00;;;8.10;;
32198;SDS011;19221;42.656;21.156;2022-07-29T11:10:45;27.85;;;9.73;;
32198;SDS011;19221;42.656;21.156;2022-07-29T11:13:11;12.20;;;8.13;;
32198;SDS011;19221;42.656;21.156;2022-07-29T11:15:55;9.65;;;7.18;;
32198;SDS011;19221;42.656;21.156;2022-07-29T11:18:22;11.27;;;8.13;;
32198;SDS011;19221;42.656;21.156;2022-07-29T11:20:49;15.02;;;9.65;;
32198;SDS011;19221;42.656;21.156;2022-07-29T11:23:19;14.63;;;9.02;;
32198;SDS011;19221;42.656;21.156;2022-07-29T11:25:46;11.18;;;8.65;;
32198;SDS011;19221;42.656;21.156;2022-07-29T11:28:32;9.57;;;7.03;;
32198;SDS011;19221;42.656;21.156;2022-07-29T11:30:58;10.93;;;7.40;;
32198;SDS011;19221;42.656;21.156;2022-07-29T11:33:31;11.93;;;7.95;;
32198;SDS011;19221;42.656;21.156;2022-07-29T11:36:10;12.55;;;8.13;;
32198;SDS011;19221;42.656;21.156;2022-07-29T11:38:36;13.13;;;7.28;;
32198;SDS011;19221;42.656;21.156;2022-07-29T11:43:55;12.05;;;7.90;;
32198;SDS011;19221;42.656;21.156;2022-07-29T11:49:07;14.15;;;9.65;;
32198;SDS011;19221;42.656;21.156;2022-07-29T11:51:35;16.13;;;8.82;;
32198;SDS011;19221;42.656;21.156;2022-07-29T11:54:01;17.65;;;10.48;;
32198;SDS011;19221;42.656;21.156;2022-07-29T11:56:27;14.68;;;8.65;;
32198;SDS011;19221;42.656;21.156;2022-07-29T11:59:05;9.95;;;8.40;;
32198;SDS011;19221;42.656;21.156;2022-07-29T12:01:32;15.98;;;10.32;;
32198;SDS011;19221;42.656;21.156;2022-07-29T12:04:06;12.27;;;7.82;;
32198;SDS011;19221;42.656;21.156;2022-07-29T12:06:33;12.95;;;7.90;;
32198;SDS011;19221;42.656;21.156;2022-07-29T12:08:59;11.48;;;7.85;;
32198;SDS011;19221;42.656;21.156;2022-07-29T12:11:25;7.78;;;6.97;;
32198;SDS011;19221;42.656;21.156;2022-07-29T12:13:51;10.48;;;7.13;;
32198;SDS011;19221;42.656;21.156;2022-07-29T12:16:17;10.80;;;6.45;;
32198;SDS011;19221;42.656;21.156;2022-07-29T12:18:54;11.93;;;7.28;;
32198;SDS011;19221;42.656;21.156;2022-07-29T12:21:19;10.40;;;7.25;;
32198;SDS011;19221;42.656;21.156;2022-07-29T12:23:52;11.82;;;7.95;;
32198;SDS011;19221;42.656;21.156;2022-07-29T12:26:18;10.02;;;7.30;;
32198;SDS011;19221;42.656;21.156;2022-07-29T12:28:43;11.23;;;7.47;;
32198;SDS011;19221;42.656;21.156;2022-07-29T12:31:13;9.23;;;7.68;;
32198;SDS011;19221;42.656;21.156;2022-07-29T12:36:06;10.82;;;7.20;;
32198;SDS011;19221;42.656;21.156;2022-07-29T12:38:36;11.50;;;7.18;;
32198;SDS011;19221;42.656;21.156;2022-07-29T12:41:02;12.52;;;7.88;;
32198;SDS011;19221;42.656;21.156;2022-07-29T12:43:28;11.50;;;7.68;;
32198;SDS011;19221;42.656;21.156;2022-07-29T12:45:55;7.60;;;6.57;;
32198;SDS011;19221;42.656;21.156;2022-07-29T12:48:34;10.60;;;8.15;;
32198;SDS011;19221;42.656;21.156;2022-07-29T12:51:01;10.63;;;7.22;;
32198;SDS011;19221;42.656;21.156;2022-07-29T12:53:28;16.00;;;10.40;;
32198;SDS011;19221;42.656;21.156;2022-07-29T12:55:54;14.88;;;7.60;;
32198;SDS011;19221;42.656;21.156;2022-07-29T12:58:28;10.73;;;6.93;;
32198;SDS011;19221;42.656;21.156;2022-07-29T13:03:28;9.75;;;7.28;;
32198;SDS011;19221;42.656;21.156;2022-07-29T13:05:54;10.50;;;7.32;;
32198;SDS011;19221;42.656;21.156;2022-07-29T13:08:20;9.55;;;6.85;;
32198;SDS011;19221;42.656;21.156;2022-07-29T13:10:45;17.05;;;7.57;;
32198;SDS011;19221;42.656;21.156;2022-07-29T13:13:14;13.77;;;8.13;;
32198;SDS011;19221;42.656;21.156;2022-07-29T13:15:41;11.50;;;7.30;;
32198;SDS011;19221;42.656;21.156;2022-07-29T13:18:30;11.07;;;7.80;;
32198;SDS011;19221;42.656;21.156;2022-07-29T13:20:56;10.65;;;7.40;;
32198;SDS011;19221;42.656;21.156;2022-07-29T13:23:22;77.60;;;13.35;;
32198;SDS011;19221;42.656;21.156;2022-07-29T13:25:48;16.45;;;8.00;;
32198;SDS011;19221;42.656;21.156;2022-07-29T13:28:14;7.00;;;6.10;;
32198;SDS011;19221;42.656;21.156;2022-07-29T13:30:40;11.68;;;6.80;;
32198;SDS011;19221;42.656;21.156;2022-07-29T13:33:06;7.97;;;6.20;;
32198;SDS011;19221;42.656;21.156;2022-07-29T13:35:32;8.40;;;6.25;;
32198;SDS011;19221;42.656;21.156;2022-07-29T13:37:57;14.27;;;7.07;;
32198;SDS011;19221;42.656;21.156;2022-07-29T13:40:23;12.02;;;6.28;;
32198;SDS011;19221;42.656;21.156;2022-07-29T13:42:49;11.50;;;6.47;;
32198;SDS011;19221;42.656;21.156;2022-07-29T13:45:15;11.30;;;6.63;;
32198;SDS011;19221;42.656;21.156;2022-07-29T13:47:41;14.20;;;6.97;;
32198;SDS011;19221;42.656;21.156;2022-07-29T13:50:07;16.35;;;7.60;;
32198;SDS011;19221;42.656;21.156;2022-07-29T13:52:35;9.02;;;6.32;;
32198;SDS011;19221;42.656;21.156;2022-07-29T13:55:01;9.85;;;6.32;;
32198;SDS011;19221;42.656;21.156;2022-07-29T13:57:27;10.95;;;6.72;;
32198;SDS011;19221;42.656;21.156;2022-07-29T13:59:53;7.88;;;5.47;;
32198;SDS011;19221;42.656;21.156;2022-07-29T14:02:19;8.65;;;5.65;;
32198;SDS011;19221;42.656;21.156;2022-07-29T14:04:44;13.00;;;6.47;;
32198;SDS011;19221;42.656;21.156;2022-07-29T14:07:10;7.45;;;5.60;;
32198;SDS011;19221;42.656;21.156;2022-07-29T14:09:36;9.10;;;6.40;;
32198;SDS011;19221;42.656;21.156;2022-07-29T14:12:02;10.30;;;7.05;;
32198;SDS011;19221;42.656;21.156;2022-07-29T14:14:28;10.30;;;6.35;;
32198;SDS011;19221;42.656;21.156;2022-07-29T14:16:54;7.80;;;6.63;;
32198;SDS011;19221;42.656;21.156;2022-07-29T14:19:20;8.93;;;6.88;;
32198;SDS011;19221;42.656;21.156;2022-07-29T14:21:45;8.60;;;7.43;;
32198;SDS011;19221;42.656;21.156;2022-07-29T14:24:11;12.23;;;8.25;;
32198;SDS011;19221;42.656;21.156;2022-07-29T14:26:37;13.98;;;7.07;;
32198;SDS011;19221;42.656;21.156;2022-07-29T14:29:03;11.70;;;8.40;;
32198;SDS011;19221;42.656;21.156;2022-07-29T14:31:28;12.10;;;7.65;;
32198;SDS011;19221;42.656;21.156;2022-07-29T14:33:54;8.48;;;6.28;;
32198;SDS011;19221;42.656;21.156;2022-07-29T14:36:20;11.00;;;6.72;;
32198;SDS011;19221;42.656;21.156;2022-07-29T14:38:45;9.45;;;6.20;;
32198;SDS011;19221;42.656;21.156;2022-07-29T14:41:11;11.48;;;7.22;;
32198;SDS011;19221;42.656;21.156;2022-07-29T14:43:37;11.25;;;6.78;;
32198;SDS011;19221;42.656;21.156;2022-07-29T14:46:03;8.85;;;6.40;;
32198;SDS011;19221;42.656;21.156;2022-07-29T14:48:28;10.32;;;6.85;;
32198;SDS011;19221;42.656;21.156;2022-07-29T14:50:54;7.68;;;6.10;;
32198;SDS011;19221;42.656;21.156;2022-07-29T14:53:21;14.60;;;9.02;;
32198;SDS011;19221;42.656;21.156;2022-07-29T14:55:47;10.98;;;7.78;;
32198;SDS011;19221;42.656;21.156;2022-07-29T14:58:13;13.32;;;7.88;;
32198;SDS011;19221;42.656;21.156;2022-07-29T15:00:39;13.10;;;6.70;;
32198;SDS011;19221;42.656;21.156;2022-07-29T15:03:05;7.95;;;5.95;;
32198;SDS011;19221;42.656;21.156;2022-07-29T15:05:31;7.68;;;5.85;;
32198;SDS011;19221;42.656;21.156;2022-07-29T15:07:57;7.43;;;5.45;;
32198;SDS011;19221;42.656;21.156;2022-07-29T15:10:23;8.32;;;6.65;;
32198;SDS011;19221;42.656;21.156;2022-07-29T15:12:51;7.88;;;5.28;;
32198;SDS011;19221;42.656;21.156;2022-07-29T15:15:17;8.07;;;5.63;;